createdAt,value
2019-05-02T00:01:06.974Z,16.30
2019-05-02T00:03:40.762Z,15.63
2019-05-02T00:06:07.441Z,14.93
2019-05-02T00:08:36.324Z,17.93
2019-05-02T00:11:05.418Z,17.73
2019-05-02T00:13:34.018Z,17.20
2019-05-02T00:16:02.471Z,15.90
2019-05-02T00:18:31.839Z,14.57
2019-05-02T00:21:03.148Z,16.23
2019-05-02T00:23:31.706Z,14.50
2019-05-02T00:26:00.162Z,17.20
2019-05-02T00:28:28.606Z,14.43
2019-05-02T00:30:57.065Z,16.47
2019-05-02T00:33:29.304Z,14.37
2019-05-02T00:35:55.694Z,17.63
2019-05-02T00:38:24.124Z,16.33
2019-05-02T00:40:52.583Z,15.20
2019-05-02T00:43:21.004Z,15.53
2019-05-02T00:45:49.467Z,15.33
2019-05-02T00:48:23.140Z,14.27
2019-05-02T00:50:52.822Z,15.10
2019-05-02T00:53:21.258Z,15.40
2019-05-02T00:55:49.734Z,15.77
2019-05-02T00:58:18.247Z,13.87
2019-05-02T01:01:04.549Z,18.70
2019-05-02T01:03:34.626Z,14.27
2019-05-02T01:06:03.166Z,14.97
2019-05-02T01:08:35.632Z,13.70
2019-05-02T01:11:01.766Z,15.10
2019-05-02T01:13:30.204Z,16.63
2019-05-02T01:15:58.663Z,14.40
2019-05-02T01:18:27.099Z,14.03
2019-05-02T01:20:58.050Z,14.53
2019-05-02T01:23:27.547Z,13.63
2019-05-02T01:25:55.891Z,14.30
2019-05-02T01:28:44.021Z,12.53
2019-05-02T01:31:30.117Z,13.77
2019-05-02T01:34:13.120Z,14.17
2019-05-02T01:36:44.157Z,13.10
2019-05-02T01:39:13.158Z,14.47
2019-05-02T01:41:41.617Z,13.37
2019-05-02T01:44:10.048Z,12.83
2019-05-02T01:46:38.502Z,14.53
2019-05-02T01:49:06.953Z,12.47
2019-05-02T01:51:36.857Z,13.87
2019-05-02T01:54:10.147Z,14.13
2019-05-02T01:56:35.715Z,13.97
2019-05-02T01:59:04.295Z,10.90
2019-05-02T02:01:32.746Z,14.03
2019-05-02T02:04:01.187Z,11.07
2019-05-02T02:06:29.644Z,14.20
2019-05-02T02:08:58.080Z,12.47
2019-05-02T02:11:28.417Z,11.23
2019-05-02T02:13:56.699Z,11.73
2019-05-02T02:16:25.159Z,13.70
2019-05-02T02:18:58.950Z,9.67
2019-05-02T02:21:33.068Z,12.03
2019-05-02T02:24:03.134Z,11.77
2019-05-02T02:26:31.594Z,11.00
2019-05-02T02:29:03.166Z,13.17
2019-05-02T02:31:30.198Z,11.60
2019-05-02T02:33:58.635Z,11.63
2019-05-02T02:36:34.982Z,11.27
2019-05-02T02:38:57.250Z,9.67
2019-05-02T02:41:25.677Z,10.50
2019-05-02T02:44:02.908Z,11.47
2019-05-02T02:46:37.905Z,9.63
2019-05-02T02:49:03.443Z,11.03
2019-05-02T02:51:31.891Z,11.27
2019-05-02T02:54:04.351Z,13.60
2019-05-02T02:56:34.365Z,10.57
2019-05-02T02:59:00.665Z,9.47
2019-05-02T03:01:31.141Z,11.83
2019-05-02T03:04:01.867Z,11.07
2019-05-02T03:06:29.432Z,11.93
2019-05-02T03:08:57.876Z,11.30
2019-05-02T03:11:27.950Z,10.60
2019-05-02T03:14:05.699Z,10.17
2019-05-02T03:16:29.827Z,9.40
2019-05-02T03:18:58.355Z,16.27
2019-05-02T03:21:26.794Z,14.40
2019-05-02T03:24:02.793Z,10.57
2019-05-02T03:26:26.065Z,11.90
2019-05-02T03:28:58.621Z,12.30
2019-05-02T03:31:30.278Z,13.93
2019-05-02T03:34:00.328Z,15.10
2019-05-02T03:36:30.056Z,10.73
2019-05-02T03:38:55.490Z,12.03
2019-05-02T03:41:23.951Z,12.90
2019-05-02T03:44:10.019Z,12.10
2019-05-02T03:46:22.893Z,16.07
2019-05-02T03:48:51.440Z,11.90
2019-05-02T03:51:24.384Z,12.13
2019-05-02T03:53:50.048Z,13.23
2019-05-02T03:56:18.488Z,10.17
2019-05-02T03:58:48.325Z,10.27
2019-05-02T04:01:17.525Z,10.53
2019-05-02T04:03:46.368Z,12.73
2019-05-02T04:06:21.097Z,11.67
2019-05-02T04:08:45.779Z,11.90
2019-05-02T04:11:17.296Z,10.40
2019-05-02T04:13:45.878Z,11.07
2019-05-02T04:16:17.495Z,12.70
2019-05-02T04:18:54.586Z,10.17
2019-05-02T04:21:24.345Z,9.37
2019-05-02T04:23:48.025Z,8.10
2019-05-02T04:26:17.798Z,8.70
2019-05-02T04:28:51.570Z,9.07
2019-05-02T04:31:16.532Z,8.80
2019-05-02T04:33:44.981Z,9.53
2019-05-02T04:36:15.107Z,10.50
2019-05-02T04:38:47.987Z,9.23
2019-05-02T04:41:18.853Z,8.40
2019-05-02T04:43:54.748Z,9.27
2019-05-02T04:46:22.105Z,8.53
2019-05-02T04:48:48.931Z,10.17
2019-05-02T04:51:17.471Z,9.37
2019-05-02T04:53:45.637Z,9.20
2019-05-02T04:56:14.309Z,10.40
2019-05-02T04:58:42.741Z,23.77
2019-05-02T05:01:11.386Z,10.73
2019-05-02T05:03:39.805Z,10.10
2019-05-02T05:06:12.295Z,9.87
2019-05-02T05:08:41.426Z,9.87
2019-05-02T05:11:08.775Z,8.10
2019-05-02T05:13:37.545Z,8.90
2019-05-02T05:16:10.051Z,10.23
2019-05-02T05:18:37.783Z,8.40
2019-05-02T05:21:10.346Z,8.63
2019-05-02T05:23:38.266Z,10.90
2019-05-02T05:26:07.303Z,10.27
2019-05-02T05:28:40.547Z,9.23
2019-05-02T05:31:07.737Z,9.77
2019-05-02T05:33:37.764Z,8.33
2019-05-02T05:36:08.221Z,7.33
2019-05-02T05:38:40.468Z,9.00
2019-05-02T05:41:08.870Z,7.97
2019-05-02T05:43:37.975Z,8.93
2019-05-02T05:46:12.392Z,7.70
2019-05-02T05:48:40.624Z,8.73
2019-05-02T05:51:07.382Z,7.90
2019-05-02T05:53:37.527Z,6.73
2019-05-02T05:56:07.981Z,7.53
2019-05-02T05:58:39.912Z,9.63
2019-05-02T06:01:09.825Z,7.63
2019-05-02T06:03:41.942Z,8.20
2019-05-02T06:06:08.306Z,12.13
2019-05-02T06:08:36.894Z,9.73
2019-05-02T06:11:05.355Z,8.20
2019-05-02T06:13:33.810Z,7.80
2019-05-02T06:16:03.371Z,7.60
2019-05-02T06:18:36.399Z,13.13
2019-05-02T06:21:03.180Z,10.00
2019-05-02T06:23:36.297Z,8.63
2019-05-02T06:26:07.758Z,7.40
2019-05-02T06:28:36.398Z,9.53
2019-05-02T06:31:07.164Z,10.33
2019-05-02T06:33:33.246Z,9.07
2019-05-02T06:36:02.468Z,8.33
2019-05-02T06:38:31.088Z,9.87
2019-05-02T06:40:59.573Z,9.60
2019-05-02T06:43:28.023Z,9.77
2019-05-02T06:45:56.465Z,12.27
2019-05-02T06:48:24.903Z,14.07
2019-05-02T06:50:53.363Z,10.40
2019-05-02T06:53:21.795Z,11.07
2019-05-02T06:55:50.260Z,12.57
2019-05-02T06:58:18.714Z,13.70
2019-05-02T07:00:57.427Z,10.20
2019-05-02T07:03:17.524Z,14.43
2019-05-02T07:05:48.913Z,13.07
2019-05-02T07:08:16.219Z,11.60
2019-05-02T07:10:45.301Z,10.83
2019-05-02T07:13:15.050Z,14.23
2019-05-02T07:15:48.321Z,10.73
2019-05-02T07:18:20.198Z,11.67
2019-05-02T07:20:48.638Z,11.37
2019-05-02T07:23:18.361Z,15.47
2019-05-02T07:25:46.943Z,11.47
2019-05-02T07:28:15.387Z,13.97
2019-05-02T07:30:43.833Z,13.57
2019-05-02T07:33:12.359Z,10.87
2019-05-02T07:35:40.787Z,14.30
2019-05-02T07:38:09.242Z,12.87
2019-05-02T07:40:37.669Z,13.27
2019-05-02T07:43:06.117Z,12.77
2019-05-02T07:45:34.564Z,13.37
2019-05-02T07:48:03.013Z,13.93
2019-05-02T07:50:31.463Z,13.27
2019-05-02T07:53:04.390Z,22.37
2019-05-02T07:55:30.700Z,15.30
2019-05-02T07:58:01.969Z,13.00
2019-05-02T08:00:32.119Z,16.63
2019-05-02T08:03:00.690Z,12.67
2019-05-02T08:05:29.132Z,13.73
2019-05-02T08:07:57.579Z,13.23
2019-05-02T08:10:26.270Z,14.83
2019-05-02T08:12:54.727Z,14.47
2019-05-02T08:15:24.734Z,13.77
2019-05-02T08:17:55.237Z,16.23
2019-05-02T08:20:23.860Z,13.77
2019-05-02T08:22:52.385Z,15.60
2019-05-02T08:25:20.858Z,13.57
2019-05-02T08:27:57.064Z,15.30
2019-05-02T08:30:27.141Z,15.37
2019-05-02T08:32:55.601Z,14.77
2019-05-02T08:35:24.115Z,13.70
2019-05-02T08:37:52.575Z,15.33
2019-05-02T08:40:21.023Z,14.10
2019-05-02T08:42:49.481Z,16.87
2019-05-02T08:45:17.988Z,14.63
2019-05-02T08:47:46.449Z,19.23
2019-05-02T08:50:15.026Z,14.80
2019-05-02T08:52:44.245Z,16.70
2019-05-02T08:55:12.785Z,19.37
2019-05-02T08:57:41.295Z,18.23
2019-05-02T09:00:11.858Z,17.73
2019-05-02T09:02:41.579Z,16.17
2019-05-02T09:05:10.783Z,16.37
2019-05-02T09:07:42.584Z,17.53
2019-05-02T09:10:09.941Z,18.03
2019-05-02T09:12:42.078Z,15.70
2019-05-02T09:15:08.806Z,17.60
2019-05-02T09:17:38.950Z,17.20
2019-05-02T09:20:15.050Z,26.63
2019-05-02T09:22:37.932Z,18.00
2019-05-02T09:25:08.217Z,18.83
2019-05-02T09:27:36.676Z,19.10
2019-05-02T09:30:17.261Z,20.70
2019-05-02T09:32:43.038Z,18.77
2019-05-02T09:35:11.856Z,19.10
2019-05-02T09:37:41.892Z,17.63
2019-05-02T09:40:14.964Z,16.87
2019-05-02T09:42:42.966Z,22.33
2019-05-02T09:45:16.294Z,23.30
2019-05-02T09:47:55.781Z,20.67
2019-05-02T09:50:20.771Z,21.43
2019-05-02T09:52:46.995Z,22.33
2019-05-02T09:55:16.897Z,19.60
2019-05-02T09:57:45.408Z,17.57
2019-05-02T10:00:26.745Z,19.83
2019-05-02T10:02:53.959Z,23.90
2019-05-02T10:05:23.050Z,18.20
2019-05-02T10:07:52.607Z,25.77
2019-05-02T10:10:21.927Z,20.93
2019-05-02T10:12:52.105Z,22.50
2019-05-02T10:15:22.221Z,24.30
2019-05-02T10:17:51.927Z,24.20
2019-05-02T10:20:23.553Z,21.90
2019-05-02T10:22:52.837Z,20.13
2019-05-02T10:25:23.028Z,22.07
2019-05-02T10:27:52.356Z,24.23
2019-05-02T10:30:22.903Z,25.00
2019-05-02T10:32:52.944Z,20.33
2019-05-02T10:35:27.552Z,20.83
2019-05-02T10:37:53.333Z,21.17
2019-05-02T10:40:22.496Z,20.83
2019-05-02T10:42:52.217Z,25.10
2019-05-02T10:45:22.546Z,21.70
2019-05-02T10:47:52.733Z,20.07
2019-05-02T10:50:32.883Z,24.53
2019-05-02T10:53:03.540Z,21.47
2019-05-02T10:55:33.213Z,23.13
2019-05-02T10:58:02.063Z,20.67
2019-05-02T11:00:32.597Z,22.57
2019-05-02T11:03:22.512Z,22.30
2019-05-02T11:06:05.626Z,25.13
2019-05-02T11:08:28.998Z,26.23
2019-05-02T11:10:57.464Z,25.83
2019-05-02T11:13:32.178Z,19.83
2019-05-02T11:16:05.434Z,20.07
2019-05-02T11:18:52.453Z,22.70
2019-05-02T11:21:22.894Z,19.77
2019-05-02T11:23:52.549Z,19.30
2019-05-02T11:26:24.864Z,19.80
2019-05-02T11:28:52.117Z,23.50
2019-05-02T11:31:21.865Z,22.87
2019-05-02T11:33:52.709Z,21.70
2019-05-02T11:36:22.292Z,18.73
2019-05-02T11:38:59.829Z,18.30
2019-05-02T11:41:22.438Z,22.97
2019-05-02T11:43:54.080Z,19.57
2019-05-02T11:46:22.085Z,22.50
2019-05-02T11:48:56.213Z,19.03
2019-05-02T11:51:22.751Z,27.00
2019-05-02T11:53:52.635Z,21.47
2019-05-02T11:56:22.220Z,17.83
2019-05-02T11:58:52.636Z,19.80
2019-05-02T12:01:34.564Z,18.50
2019-05-02T12:03:52.551Z,21.27
2019-05-02T12:06:22.560Z,18.33
2019-05-02T12:08:52.567Z,17.50
2019-05-02T12:11:22.894Z,17.47
2019-05-02T12:13:54.803Z,20.37
2019-05-02T12:16:22.977Z,19.37
2019-05-02T12:18:53.557Z,18.50
2019-05-02T12:21:22.860Z,18.97
2019-05-02T12:23:52.563Z,21.30
2019-05-02T12:26:22.052Z,23.87
2019-05-02T12:28:52.468Z,19.13
2019-05-02T12:31:26.263Z,18.70
2019-05-02T12:33:55.574Z,19.40
2019-05-02T12:36:24.080Z,19.00
2019-05-02T12:38:52.827Z,18.20
2019-05-02T12:41:24.580Z,19.60
2019-05-02T12:43:52.409Z,23.53
2019-05-02T12:46:22.174Z,17.73
2019-05-02T12:48:51.998Z,18.07
2019-05-02T12:51:22.376Z,18.50
2019-05-02T12:53:52.843Z,17.80
2019-05-02T12:56:22.923Z,16.90
2019-05-02T12:58:52.983Z,17.63
2019-05-02T13:01:21.959Z,17.00
2019-05-02T13:03:52.234Z,21.63
2019-05-02T13:06:21.994Z,15.37
2019-05-02T13:08:52.579Z,16.90
2019-05-02T13:11:28.471Z,18.03
2019-05-02T13:13:56.941Z,17.50
2019-05-02T13:16:25.375Z,17.57
2019-05-02T13:18:57.153Z,16.97
2019-05-02T13:21:41.488Z,15.37
2019-05-02T13:24:16.589Z,14.30
2019-05-02T13:26:45.222Z,14.57
2019-05-02T13:29:13.915Z,14.63
2019-05-02T13:32:01.641Z,15.07
2019-05-02T13:34:34.798Z,15.17
2019-05-02T13:37:03.718Z,14.37
2019-05-02T13:39:36.783Z,14.60
2019-05-02T13:42:05.234Z,15.87
2019-05-02T13:44:38.009Z,11.70
2019-05-02T13:47:08.150Z,14.43
2019-05-02T13:49:36.680Z,15.30
2019-05-02T13:52:05.123Z,13.83
2019-05-02T13:54:34.176Z,13.93
2019-05-02T13:57:03.201Z,18.23
2019-05-02T13:59:33.609Z,14.87
2019-05-02T14:02:02.860Z,18.00
2019-05-02T14:04:32.638Z,17.77
2019-05-02T14:07:02.966Z,17.20
2019-05-02T14:09:33.059Z,18.20
2019-05-02T14:12:15.037Z,18.07
2019-05-02T14:14:43.537Z,19.57
2019-05-02T14:17:12.005Z,17.90
2019-05-02T14:19:42.069Z,18.37
2019-05-02T14:22:12.751Z,18.97
2019-05-02T14:24:42.195Z,19.20
2019-05-02T14:27:12.808Z,17.80
2019-05-02T14:29:42.390Z,16.53
2019-05-02T14:32:21.299Z,18.33
2019-05-02T14:34:42.791Z,23.23
2019-05-02T14:37:11.807Z,19.60
2019-05-02T14:39:41.641Z,18.33
2019-05-02T14:42:15.336Z,18.90
2019-05-02T14:45:01.392Z,20.27
2019-05-02T14:47:18.148Z,21.40
2019-05-02T14:49:42.816Z,19.13
2019-05-02T14:52:12.518Z,20.07
2019-05-02T14:54:43.855Z,18.17
2019-05-02T14:57:17.254Z,20.00
2019-05-02T14:59:45.531Z,25.13
2019-05-02T15:02:15.628Z,21.00
2019-05-02T15:04:48.702Z,18.47
2019-05-02T15:07:17.606Z,22.23
2019-05-02T15:09:44.436Z,20.47
2019-05-02T15:12:17.468Z,20.67
2019-05-02T15:14:43.283Z,21.73
2019-05-02T15:17:12.172Z,23.10
2019-05-02T15:19:42.640Z,20.70
2019-05-02T15:22:12.457Z,21.87
2019-05-02T15:24:42.369Z,21.57
2019-05-02T15:27:13.638Z,21.87
2019-05-02T15:29:41.970Z,21.70
2019-05-02T15:32:28.573Z,20.63
2019-05-02T15:35:04.589Z,19.83
2019-05-02T15:37:35.694Z,20.43
2019-05-02T15:42:34.905Z,28.03
2019-05-02T15:45:05.564Z,22.63
2019-05-02T15:47:36.995Z,23.77
2019-05-02T15:50:04.846Z,26.87
2019-05-02T15:52:34.919Z,23.90
2019-05-02T15:55:04.949Z,25.80
2019-05-02T15:57:42.980Z,23.80
2019-05-02T16:00:07.893Z,21.43
2019-05-02T16:02:36.394Z,21.63
2019-05-02T16:05:07.376Z,24.80
2019-05-02T16:07:38.018Z,23.13
2019-05-02T16:10:08.595Z,22.10
2019-05-02T16:12:37.613Z,24.27
2019-05-02T16:15:13.213Z,25.37
2019-05-02T16:17:37.181Z,25.17
2019-05-02T16:20:10.833Z,28.47
2019-05-02T16:22:46.151Z,23.40
2019-05-02T16:25:09.332Z,23.80
2019-05-02T16:27:45.201Z,24.13
2019-05-02T16:30:16.997Z,26.73
2019-05-02T16:32:47.216Z,26.03
2019-05-02T16:35:17.580Z,22.97
2019-05-02T16:37:46.653Z,28.50
2019-05-02T16:40:22.171Z,25.93
2019-05-02T16:42:48.209Z,29.30
2019-05-02T16:45:16.923Z,27.27
2019-05-02T16:47:49.533Z,25.90
2019-05-02T16:50:18.573Z,26.13
2019-05-02T16:52:47.419Z,23.30
2019-05-02T16:55:21.152Z,23.13
2019-05-02T16:57:47.002Z,25.33
2019-05-02T17:00:17.661Z,23.07
2019-05-02T17:02:46.565Z,23.17
2019-05-02T17:05:15.164Z,25.53
2019-05-02T17:08:03.158Z,32.90
2019-05-02T17:10:35.937Z,26.60
2019-05-02T17:13:04.832Z,21.97
2019-05-02T17:15:35.586Z,26.67
2019-05-02T17:18:12.856Z,27.50
2019-05-02T17:20:35.664Z,22.37
2019-05-02T17:23:07.565Z,22.87
2019-05-02T17:25:34.408Z,21.47
2019-05-02T17:28:08.495Z,26.20
2019-05-02T17:30:38.621Z,22.93
2019-05-02T17:33:07.324Z,26.23
2019-05-02T17:35:33.450Z,22.87
2019-05-02T17:38:02.586Z,23.13
2019-05-02T17:40:31.069Z,25.00
2019-05-02T17:43:02.769Z,22.87
2019-05-02T17:45:33.597Z,22.53
2019-05-02T17:47:59.902Z,25.20
2019-05-02T17:50:33.063Z,25.40
2019-05-02T17:53:03.414Z,24.80
2019-05-02T17:55:32.811Z,25.33
2019-05-02T17:58:04.503Z,28.83
2019-05-02T18:00:33.913Z,24.53
2019-05-02T18:03:02.543Z,25.97
2019-05-02T18:05:34.207Z,27.03
2019-05-02T18:08:01.347Z,31.13
2019-05-02T18:10:29.785Z,27.90
2019-05-02T18:12:59.844Z,32.43
2019-05-02T18:15:29.836Z,27.80
2019-05-02T18:17:59.798Z,27.20
2019-05-02T18:20:28.882Z,29.37
2019-05-02T18:22:57.340Z,31.63
2019-05-02T18:25:25.789Z,34.13
2019-05-02T18:27:54.247Z,27.90
2019-05-02T18:30:26.725Z,31.10
2019-05-02T18:32:57.439Z,28.37
2019-05-02T18:35:23.269Z,30.00
2019-05-02T18:37:51.912Z,26.40
2019-05-02T18:40:27.939Z,29.73
2019-05-02T18:42:51.963Z,28.27
2019-05-02T18:45:28.606Z,30.27
2019-05-02T18:48:02.149Z,31.23
2019-05-02T18:50:29.105Z,33.80
2019-05-02T18:52:57.647Z,33.17
2019-05-02T18:55:26.324Z,30.93
2019-05-02T18:57:56.992Z,30.87
2019-05-02T19:00:27.945Z,34.37
2019-05-02T19:02:56.560Z,31.60
2019-05-02T19:05:26.607Z,29.70
2019-05-02T19:07:56.471Z,30.43
2019-05-02T19:10:25.058Z,30.83
2019-05-02T19:12:56.042Z,33.87
2019-05-02T19:15:23.900Z,29.67
2019-05-02T19:17:52.932Z,31.57
2019-05-02T19:20:24.654Z,31.43
2019-05-02T19:22:56.774Z,30.80
2019-05-02T19:25:23.347Z,33.03
2019-05-02T19:27:57.675Z,32.57
2019-05-02T19:30:27.229Z,31.43
2019-05-02T19:32:57.901Z,35.03
2019-05-02T19:35:26.008Z,28.93
2019-05-02T19:37:55.107Z,23.63
2019-05-02T19:40:28.221Z,21.93
2019-05-02T19:42:57.297Z,24.13
2019-05-02T19:45:26.735Z,20.57
2019-05-02T19:47:57.686Z,22.07
2019-05-02T19:50:38.562Z,20.07
2019-05-02T19:53:04.298Z,19.10
2019-05-02T19:55:32.151Z,19.30
2019-05-02T19:58:02.352Z,22.23
2019-05-02T20:00:31.842Z,18.60
2019-05-02T20:03:01.785Z,22.90
2019-05-02T20:05:32.177Z,20.20
2019-05-02T20:08:02.514Z,19.80
2019-05-02T20:10:32.170Z,19.77
2019-05-02T20:13:02.931Z,21.93
2019-05-02T20:15:32.859Z,23.37
2019-05-02T20:18:04.634Z,21.13
2019-05-02T20:20:53.908Z,19.17
2019-05-02T20:23:28.661Z,18.23
2019-05-02T20:25:52.527Z,16.60
2019-05-02T20:28:21.842Z,18.47
2019-05-02T20:30:52.491Z,18.47
2019-05-02T20:33:22.270Z,19.43
2019-05-02T20:35:52.677Z,19.60
2019-05-02T20:38:21.889Z,16.37
2019-05-02T20:40:52.268Z,16.80
2019-05-02T20:43:22.473Z,19.00
2019-05-02T20:45:52.845Z,16.70
2019-05-02T20:48:22.778Z,13.77
2019-05-02T20:50:52.075Z,13.83
2019-05-02T20:53:30.254Z,12.60
2019-05-02T20:55:52.367Z,11.93
2019-05-02T20:58:21.964Z,11.00
2019-05-02T21:01:04.520Z,10.83
2019-05-02T21:03:20.796Z,10.60
2019-05-02T21:05:56.759Z,11.47
2019-05-02T21:08:35.602Z,10.47
2019-05-02T21:11:04.826Z,9.37
2019-05-02T21:13:33.326Z,9.70
2019-05-02T21:16:01.932Z,11.20
2019-05-02T21:18:30.419Z,11.23
2019-05-02T21:20:58.899Z,11.27
2019-05-02T21:23:27.344Z,9.87
2019-05-02T21:25:55.822Z,10.33
2019-05-02T21:28:24.261Z,10.33
2019-05-02T21:30:52.719Z,8.73
2019-05-02T21:33:38.918Z,8.37
2019-05-02T21:36:07.736Z,8.20
2019-05-02T21:38:36.610Z,7.70
2019-05-02T21:41:08.130Z,7.30
2019-05-02T21:43:36.575Z,8.13
2019-05-02T21:46:05.083Z,6.50
2019-05-02T21:48:33.519Z,7.30
2019-05-02T21:51:03.608Z,9.73
2019-05-02T21:53:33.683Z,7.50
2019-05-02T21:56:09.809Z,8.27
2019-05-02T21:58:38.317Z,6.40
2019-05-02T22:01:09.177Z,6.40
2019-05-02T22:03:37.760Z,5.50
2019-05-02T22:06:06.345Z,6.07
2019-05-02T22:08:34.784Z,4.80
2019-05-02T22:11:03.379Z,5.00
2019-05-02T22:13:31.898Z,5.03
2019-05-02T22:16:02.199Z,5.37
2019-05-02T22:18:32.122Z,4.57
2019-05-02T22:21:01.709Z,4.57
2019-05-02T22:23:31.887Z,3.87
2019-05-02T22:26:02.114Z,4.33
2019-05-02T22:28:32.545Z,4.97
2019-05-02T22:31:03.009Z,3.73
2019-05-02T22:33:32.788Z,4.27
2019-05-02T22:36:01.933Z,4.40
2019-05-02T22:38:42.363Z,3.20
2019-05-02T22:41:12.568Z,3.40
2019-05-02T22:43:42.139Z,4.70
2019-05-02T22:46:14.078Z,5.37
2019-05-02T22:48:42.613Z,5.57
2019-05-02T22:51:12.091Z,2.90
2019-05-02T22:53:41.678Z,4.87
2019-05-02T22:56:11.795Z,7.07
2019-05-02T22:58:42.030Z,4.00
2019-05-02T23:01:10.558Z,3.17
2019-05-02T23:03:39.008Z,4.93
2019-05-02T23:06:07.441Z,2.90
2019-05-02T23:08:35.918Z,3.03
2019-05-02T23:11:04.427Z,3.73
2019-05-02T23:13:32.868Z,5.00
2019-05-02T23:16:02.890Z,3.13
2019-05-02T23:18:31.958Z,3.20
2019-05-02T23:21:02.137Z,4.83
2019-05-02T23:23:32.764Z,4.80
2019-05-02T23:26:05.451Z,5.60
2019-05-02T23:28:35.537Z,4.73
2019-05-02T23:31:03.990Z,4.47
2019-05-02T23:33:51.588Z,3.43
2019-05-02T23:36:20.207Z,2.90
2019-05-02T23:38:48.655Z,3.93
2019-05-02T23:41:17.092Z,3.87
2019-05-02T23:43:45.610Z,5.20
2019-05-02T23:46:14.026Z,4.63
2019-05-02T23:48:42.488Z,5.17
2019-05-02T23:51:12.131Z,3.57
2019-05-02T23:53:42.243Z,5.80
2019-05-02T23:56:13.024Z,5.50
2019-05-02T23:58:42.623Z,7.07
